Time;durP1;ratioP1;P1;durP2;ratioP2;P2;SDS_P1;SDS_P2;PMS_P1;PMS_P2;Temp;Humidity;BMP_temperature;BMP_pressure;BME280_temperature;BME280_humidity;BME280_pressure;Samples;Min_cycle;Max_cycle;Signal;HPM_P1;HPM_P2
2022/08/16 00:02:13;;;;;;;2.83;2.20;;;14.60;58.40;;;;;;5050633;28;20757;-36
2022/08/16 00:04:44;;;;;;;2.97;2.47;;;14.60;58.50;;;;;;5050662;28;20203;-35
2022/08/16 00:07:14;;;;;;;3.42;2.28;;;14.70;58.50;;;;;;5050566;28;20219;-37
2022/08/16 00:09:45;;;;;;;4.35;2.30;;;14.70;58.50;;;;;;5050101;28;20207;-35
2022/08/16 00:12:18;;;;;;;3.85;2.33;;;14.70;58.50;;;;;;5050838;28;20198;-40
2022/08/16 00:14:49;;;;;;;3.60;2.33;;;14.70;58.60;;;;;;5065135;28;20202;-36
2022/08/16 00:17:19;;;;;;;3.20;2.35;;;14.80;58.60;;;;;;5070785;28;20655;-40
2022/08/16 00:19:50;;;;;;;2.60;2.38;;;14.80;58.60;;;;;;5071204;28;20659;-35
2022/08/16 00:22:21;;;;;;;4.47;2.30;;;14.90;58.70;;;;;;5045140;28;20203;-36
2022/08/16 00:24:52;;;;;;;4.20;2.40;;;14.90;58.80;;;;;;5030666;28;20311;-37
2022/08/16 00:27:25;;;;;;;3.55;2.45;;;15.00;58.90;;;;;;5043865;28;20709;-35
2022/08/16 00:29:55;;;;;;;3.33;2.28;;;15.00;58.90;;;;;;5050012;28;20202;-35
2022/08/16 00:32:27;;;;;;;3.58;2.33;;;15.10;59.00;;;;;;5030500;28;20215;-41
2022/08/16 00:34:57;;;;;;;3.00;2.40;;;15.10;59.00;;;;;;5030255;28;20228;-39
2022/08/16 00:37:31;;;;;;;3.40;2.20;;;15.10;58.90;;;;;;5030782;28;20228;-45
2022/08/16 00:40:02;;;;;;;4.20;2.20;;;15.20;58.90;;;;;;5043156;28;20195;-36
2022/08/16 00:42:35;;;;;;;4.90;2.50;;;15.20;58.90;;;;;;5049351;28;20234;-37
2022/08/16 00:45:10;;;;;;;3.38;2.40;;;15.30;58.90;;;;;;5049814;28;20207;-35
2022/08/16 00:47:48;;;;;;;3.15;2.28;;;15.30;58.90;;;;;;5049429;28;20215;-46
2022/08/16 00:50:20;;;;;;;4.80;2.25;;;15.30;58.90;;;;;;5050315;28;20199;-35
2022/08/16 00:52:51;;;;;;;3.17;2.17;;;15.40;58.90;;;;;;5050145;28;20202;-36
2022/08/16 00:55:24;;;;;;;3.15;2.08;;;15.40;58.90;;;;;;5050155;28;20202;-36
2022/08/16 00:57:59;;;;;;;2.63;2.25;;;15.40;58.90;;;;;;5049001;28;20235;-39
2022/08/16 01:00:31;;;;;;;3.05;2.20;;;15.40;58.80;;;;;;5049520;28;20542;-35
2022/08/16 01:03:04;;;;;;;2.63;1.90;;;15.50;59.00;;;;;;5049922;28;20640;-43
2022/08/16 01:05:35;;;;;;;3.80;1.83;;;15.50;58.90;;;;;;5049893;28;20869;-42
2022/08/16 01:08:07;;;;;;;2.15;1.92;;;15.60;59.00;;;;;;5049849;28;20690;-47
2022/08/16 01:10:38;;;;;;;2.97;2.40;;;15.60;59.00;;;;;;5046008;28;20188;-38
2022/08/16 01:13:13;;;;;;;3.28;2.35;;;15.60;59.10;;;;;;5048941;28;20201;-41
2022/08/16 01:15:48;;;;;;;3.17;1.88;;;15.70;59.10;;;;;;5049272;28;20196;-36
2022/08/16 01:18:21;;;;;;;2.40;1.95;;;15.70;59.10;;;;;;5049487;28;20713;-38
2022/08/16 01:21:01;;;;;;;2.38;2.00;;;15.70;59.10;;;;;;5050630;28;20191;-36
2022/08/16 01:23:39;;;;;;;2.63;1.73;;;15.80;59.10;;;;;;5054238;28;20195;-39
2022/08/16 01:26:12;;;;;;;3.72;2.05;;;15.80;59.00;;;;;;5052624;28;20222;-40
2022/08/16 01:28:45;;;;;;;2.78;1.90;;;15.80;59.00;;;;;;5053905;28;20204;-35
2022/08/16 01:31:18;;;;;;;3.17;2.10;;;15.90;59.10;;;;;;5053106;28;20184;-36
2022/08/16 01:33:49;;;;;;;3.72;2.20;;;15.90;59.70;;;;;;5052544;28;20206;-39
2022/08/16 01:36:20;;;;;;;2.75;2.03;;;15.90;59.10;;;;;;5052164;28;20215;-35
2022/08/16 01:38:52;;;;;;;2.30;2.10;;;16.00;59.20;;;;;;5053466;28;20231;-41
2022/08/16 01:41:26;;;;;;;2.78;2.17;;;16.00;59.20;;;;;;5053385;28;20187;-35
2022/08/16 01:43:57;;;;;;;3.60;2.28;;;16.00;59.30;;;;;;5053796;28;20222;-40
2022/08/16 01:46:32;;;;;;;4.07;2.28;;;16.00;59.20;;;;;;5053441;28;20220;-35
2022/08/16 01:49:06;;;;;;;2.83;2.00;;;16.10;59.20;;;;;;5052750;28;20231;-36
2022/08/16 01:51:37;;;;;;;5.32;1.92;;;16.20;59.30;;;;;;5053155;28;20199;-35
2022/08/16 01:54:08;;;;;;;7.47;3.08;;;16.20;59.40;;;;;;5052244;28;20195;-35
2022/08/16 01:56:41;;;;;;;4.18;2.67;;;16.30;59.40;;;;;;5052341;28;20590;-39
2022/08/16 01:59:14;;;;;;;6.50;2.80;;;16.30;59.40;;;;;;5052227;28;20232;-35
2022/08/16 02:01:45;;;;;;;6.32;2.85;;;16.30;59.40;;;;;;5052643;28;20192;-36
2022/08/16 02:04:16;;;;;;;5.85;2.92;;;16.40;59.40;;;;;;5052753;28;20690;-44
2022/08/16 02:06:47;;;;;;;5.35;2.67;;;16.40;59.30;;;;;;5052034;28;20709;-42
2022/08/16 02:09:19;;;;;;;5.85;2.70;;;16.50;59.30;;;;;;5052947;28;20199;-45
2022/08/16 02:11:55;;;;;;;6.03;2.63;;;16.50;59.30;;;;;;5052512;28;20184;-35
2022/08/16 02:14:27;;;;;;;6.18;2.72;;;16.60;59.30;;;;;;5052607;28;20195;-40
2022/08/16 02:16:58;;;;;;;6.15;2.90;;;16.60;59.20;;;;;;5035842;28;20223;-38
2022/08/16 02:19:30;;;;;;;4.47;2.92;;;16.60;59.20;;;;;;5032533;28;20234;-37
2022/08/16 02:22:02;;;;;;;6.38;3.10;;;16.70;59.20;;;;;;5032461;28;20192;-41
2022/08/16 02:24:34;;;;;;;4.47;2.88;;;16.70;59.10;;;;;;5032811;28;20200;-39
2022/08/16 02:27:06;;;;;;;6.00;2.80;;;16.80;59.10;;;;;;5042465;28;20215;-36
2022/08/16 02:29:37;;;;;;;6.00;3.20;;;16.80;59.10;;;;;;5053059;28;20213;-46
2022/08/16 02:32:09;;;;;;;4.57;2.90;;;16.80;59.00;;;;;;5051283;28;20204;-41
2022/08/16 02:34:40;;;;;;;7.82;3.20;;;16.90;59.10;;;;;;5051871;28;20245;-36
2022/08/16 02:37:11;;;;;;;6.38;3.25;;;16.90;59.00;;;;;;5052009;28;20567;-42
2022/08/16 02:39:41;;;;;;;8.70;4.35;;;16.90;59.00;;;;;;5051265;28;20230;-36
2022/08/16 02:42:14;;;;;;;9.90;4.90;;;16.90;59.00;;;;;;5051333;28;20196;-39
2022/08/16 02:44:45;;;;;;;11.30;7.40;;;17.00;59.10;;;;;;5051149;28;20199;-39
2022/08/16 02:47:15;;;;;;;15.88;8.13;;;17.00;59.10;;;;;;5051936;28;20223;-36
2022/08/16 02:49:46;;;;;;;17.38;9.32;;;17.00;59.10;;;;;;5051540;28;20678;-36
2022/08/16 02:52:17;;;;;;;17.10;8.23;;;17.10;59.10;;;;;;5051516;28;20195;-36
2022/08/16 02:54:48;;;;;;;14.20;8.15;;;17.10;59.10;;;;;;5051485;28;20943;-36
2022/08/16 02:57:21;;;;;;;14.20;8.80;;;17.10;58.90;;;;;;5051659;28;20219;-40
2022/08/16 02:59:52;;;;;;;16.23;8.18;;;17.10;58.90;;;;;;5052238;28;20710;-36
2022/08/16 03:02:23;;;;;;;18.48;9.18;;;17.20;59.00;;;;;;5031703;28;20688;-36
2022/08/16 03:04:54;;;;;;;14.57;7.75;;;17.20;59.00;;;;;;5031660;28;20202;-36
2022/08/16 03:07:25;;;;;;;15.93;8.32;;;17.20;59.00;;;;;;5031540;28;20239;-36
2022/08/16 03:09:56;;;;;;;18.75;9.30;;;17.20;59.00;;;;;;5031167;28;20204;-43
2022/08/16 03:12:28;;;;;;;14.60;9.23;;;17.20;59.00;;;;;;5031175;28;20192;-38
2022/08/16 03:14:59;;;;;;;18.95;8.82;;;17.30;59.00;;;;;;5031830;28;20204;-36
2022/08/16 03:17:30;;;;;;;15.63;8.52;;;17.30;59.00;;;;;;5048140;28;20223;-37
2022/08/16 03:20:00;;;;;;;17.23;8.93;;;17.30;59.00;;;;;;5048702;28;20219;-37
2022/08/16 03:22:31;;;;;;;16.20;8.75;;;17.30;59.00;;;;;;5051302;28;20192;-37
2022/08/16 03:25:03;;;;;;;15.38;8.18;;;17.30;58.90;;;;;;5050708;28;20663;-40
2022/08/16 03:27:37;;;;;;;18.55;8.57;;;17.40;59.00;;;;;;5050785;28;20687;-37
2022/08/16 03:30:11;;;;;;;15.27;8.98;;;17.40;58.90;;;;;;5051368;28;20808;-38
2022/08/16 03:32:42;;;;;;;20.02;9.20;;;17.40;59.00;;;;;;5050464;28;20195;-47
2022/08/16 03:35:13;;;;;;;13.80;8.93;;;17.40;59.00;;;;;;5050786;28;20199;-43
2022/08/16 03:37:44;;;;;;;13.27;8.27;;;17.50;59.10;;;;;;5046577;28;20230;-36
2022/08/16 03:40:17;;;;;;;16.63;8.85;;;17.40;59.10;;;;;;5030545;28;20231;-36
2022/08/16 03:42:49;;;;;;;14.65;9.32;;;17.50;59.10;;;;;;5029999;28;20211;-39
2022/08/16 03:45:20;;;;;;;15.85;9.40;;;17.50;59.10;;;;;;5031712;28;20200;-42
2022/08/16 03:47:51;;;;;;;16.08;9.63;;;17.50;59.10;;;;;;5050618;28;20219;-36
2022/08/16 03:50:22;;;;;;;14.38;9.23;;;17.50;59.10;;;;;;5050162;28;20372;-39
2022/08/16 03:52:53;;;;;;;15.95;9.20;;;17.50;59.10;;;;;;5050284;28;20200;-35
2022/08/16 03:55:23;;;;;;;14.60;8.73;;;17.50;59.10;;;;;;5044739;28;20184;-36
2022/08/16 03:57:56;;;;;;;16.25;8.95;;;17.50;59.10;;;;;;5047870;28;20211;-36
2022/08/16 04:00:28;;;;;;;14.00;8.80;;;17.50;59.00;;;;;;5051397;28;20223;-37
2022/08/16 04:03:01;;;;;;;16.55;9.52;;;17.50;59.00;;;;;;5049881;28;20199;-35
2022/08/16 04:05:32;;;;;;;16.60;9.73;;;17.60;59.00;;;;;;5050662;28;20667;-35
2022/08/16 04:08:02;;;;;;;17.15;8.77;;;17.60;59.00;;;;;;5050165;28;20212;-43
2022/08/16 04:10:33;;;;;;;16.17;8.77;;;17.60;59.00;;;;;;5051103;28;20195;-38
2022/08/16 04:13:06;;;;;;;17.98;9.00;;;17.60;59.00;;;;;;5049376;28;20218;-42
2022/08/16 04:15:37;;;;;;;14.50;8.57;;;17.70;59.10;;;;;;5045651;28;20201;-44
2022/08/16 04:18:08;;;;;;;15.38;8.77;;;17.70;59.10;;;;;;5030629;28;20311;-35
2022/08/16 04:20:39;;;;;;;16.52;8.38;;;17.70;59.10;;;;;;5030847;28;20196;-42
2022/08/16 04:23:10;;;;;;;13.07;7.93;;;17.70;59.10;;;;;;5029594;28;20192;-36
2022/08/16 04:25:41;;;;;;;18.23;8.75;;;17.70;59.00;;;;;;5028550;28;20707;-43
2022/08/16 04:28:14;;;;;;;14.73;8.27;;;17.70;59.00;;;;;;5030371;28;20200;-36
2022/08/16 04:30:45;;;;;;;13.23;8.38;;;17.70;58.90;;;;;;5036352;28;20200;-36
2022/08/16 04:33:16;;;;;;;13.27;8.20;;;17.70;58.90;;;;;;5037845;28;20192;-36
2022/08/16 04:35:46;;;;;;;13.25;7.63;;;17.80;58.90;;;;;;5037382;28;20195;-38
2022/08/16 04:38:18;;;;;;;16.45;7.97;;;17.80;58.90;;;;;;5050421;28;20246;-36
2022/08/16 04:40:49;;;;;;;10.60;7.07;;;17.80;58.90;;;;;;5049163;28;20202;-35
2022/08/16 04:43:21;;;;;;;13.35;7.65;;;17.80;59.00;;;;;;5039463;28;20196;-38
2022/08/16 04:45:52;;;;;;;13.82;7.82;;;17.80;59.00;;;;;;5029657;28;20565;-38
2022/08/16 04:48:23;;;;;;;15.45;7.28;;;17.80;58.90;;;;;;5030144;28;20203;-37
2022/08/16 04:50:53;;;;;;;11.60;7.18;;;17.80;59.00;;;;;;5030459;28;20200;-36
2022/08/16 04:53:24;;;;;;;13.35;7.55;;;17.90;59.00;;;;;;5029640;28;20192;-36
2022/08/16 04:55:55;;;;;;;11.52;7.15;;;17.90;59.00;;;;;;5030998;28;20208;-40
2022/08/16 04:58:32;;;;;;;12.70;7.75;;;17.90;59.10;;;;;;5049361;28;20202;-36
2022/08/16 05:01:03;;;;;;;13.70;7.72;;;17.90;59.00;;;;;;5032799;28;20200;-36
2022/08/16 05:03:34;;;;;;;12.85;7.13;;;17.90;59.10;;;;;;5029836;28;20192;-36
2022/08/16 05:06:05;;;;;;;12.98;7.75;;;17.90;59.00;;;;;;5030307;28;20931;-38
2022/08/16 05:08:36;;;;;;;13.00;7.70;;;17.90;59.10;;;;;;5029750;28;20199;-36
2022/08/16 05:11:09;;;;;;;11.25;6.82;;;17.90;59.20;;;;;;5031729;28;20588;-39
2022/08/16 05:13:45;;;;;;;11.00;7.00;;;17.90;59.20;;;;;;5029894;28;20192;-38
2022/08/16 05:16:18;;;;;;;11.27;7.15;;;18.00;59.30;;;;;;5038828;28;20241;-37
2022/08/16 05:18:49;;;;;;;10.38;6.60;;;17.90;59.20;;;;;;5035079;28;20207;-36
2022/08/16 05:21:20;;;;;;;11.70;6.90;;;17.90;59.10;;;;;;5041186;28;20202;-35
2022/08/16 05:23:52;;;;;;;11.90;6.85;;;17.90;59.00;;;;;;5035166;28;20200;-38
2022/08/16 05:26:23;;;;;;;11.82;6.70;;;17.90;59.00;;;;;;5034733;28;20222;-40
2022/08/16 05:28:55;;;;;;;11.70;6.88;;;18.00;59.00;;;;;;5049461;28;20214;-36
2022/08/16 05:31:26;;;;;;;9.80;6.43;;;18.00;59.00;;;;;;5048950;28;20192;-36
2022/08/16 05:33:57;;;;;;;11.55;6.43;;;18.00;59.10;;;;;;5035948;28;20215;-36
2022/08/16 05:36:28;;;;;;;9.90;6.50;;;18.00;59.00;;;;;;5029161;28;20239;-36
2022/08/16 05:38:59;;;;;;;10.63;7.03;;;18.00;59.00;;;;;;5028824;28;20223;-36
2022/08/16 05:41:29;;;;;;;9.65;6.63;;;18.00;59.00;;;;;;5028843;28;20204;-40
2022/08/16 05:44:02;;;;;;;9.63;6.13;;;18.00;59.00;;;;;;5029019;28;20199;-42
2022/08/16 05:46:33;;;;;;;8.80;6.15;;;18.00;59.10;;;;;;5030051;28;20219;-38
2022/08/16 05:49:04;;;;;;;9.00;6.18;;;18.00;59.10;;;;;;5046476;28;20202;-36
2022/08/16 05:51:34;;;;;;;11.43;6.25;;;18.00;59.10;;;;;;5048527;28;20192;-39
2022/08/16 05:54:05;;;;;;;10.40;6.78;;;18.00;59.10;;;;;;5048412;28;20206;-37
2022/08/16 05:56:36;;;;;;;7.68;5.85;;;17.90;59.10;;;;;;5048300;28;20575;-36
2022/08/16 05:59:09;;;;;;;10.57;6.32;;;17.90;59.10;;;;;;5048727;28;20683;-36
2022/08/16 06:01:40;;;;;;;9.27;5.72;;;17.90;59.00;;;;;;5049173;28;20568;-47
2022/08/16 06:04:12;;;;;;;10.90;5.78;;;17.90;59.00;;;;;;5049134;28;20191;-48
2022/08/16 06:06:44;;;;;;;9.63;5.55;;;17.90;58.90;;;;;;5051337;28;20215;-36
2022/08/16 06:09:15;;;;;;;8.40;5.40;;;17.90;58.90;;;;;;5053408;28;20195;-42
2022/08/16 06:11:47;;;;;;;7.43;5.20;;;17.90;58.90;;;;;;5052570;28;20191;-39
2022/08/16 06:14:20;;;;;;;8.52;5.93;;;17.90;58.80;;;;;;5052203;28;20203;-37
2022/08/16 06:16:52;;;;;;;7.68;5.47;;;17.90;58.80;;;;;;5037738;28;20216;-45
2022/08/16 06:19:23;;;;;;;6.63;5.07;;;17.90;58.80;;;;;;5032582;28;20214;-38
2022/08/16 06:21:53;;;;;;;8.55;5.72;;;17.90;58.80;;;;;;5032820;28;20200;-45
2022/08/16 06:24:24;;;;;;;7.18;5.63;;;17.90;58.90;;;;;;5032717;28;20703;-38
2022/08/16 06:26:55;;;;;;;8.48;5.43;;;17.90;58.90;;;;;;5041062;28;20232;-35
2022/08/16 06:29:27;;;;;;;6.35;4.88;;;17.90;58.90;;;;;;5052319;28;20211;-39
2022/08/16 06:31:58;;;;;;;7.55;5.20;;;17.90;58.90;;;;;;5052493;28;20211;-38
2022/08/16 06:34:29;;;;;;;8.65;5.35;;;17.90;58.90;;;;;;5052207;28;20659;-42
2022/08/16 06:36:59;;;;;;;6.93;4.90;;;17.90;58.90;;;;;;5052481;28;20234;-36
2022/08/16 06:39:30;;;;;;;7.63;4.80;;;17.90;58.80;;;;;;5049084;28;20223;-36
2022/08/16 06:42:01;;;;;;;7.90;5.20;;;17.90;58.80;;;;;;5052795;28;20675;-35
2022/08/16 06:44:33;;;;;;;10.85;5.45;;;17.90;58.70;;;;;;5051113;28;20647;-36
2022/08/16 06:47:04;;;;;;;13.88;5.97;;;17.90;58.90;;;;;;5052483;28;20215;-38
2022/08/16 06:49:35;;;;;;;12.32;6.50;;;17.90;58.90;;;;;;5051966;28;20219;-36
2022/08/16 06:52:07;;;;;;;9.35;4.88;;;17.90;58.90;;;;;;5052438;28;20191;-40
2022/08/16 06:54:38;;;;;;;7.43;4.35;;;17.90;58.90;;;;;;5049485;28;20191;-39
2022/08/16 06:57:10;;;;;;;6.63;4.30;;;17.90;58.90;;;;;;5043700;28;20733;-42
2022/08/16 06:59:42;;;;;;;8.68;4.78;;;17.90;59.00;;;;;;5052004;28;20222;-35
2022/08/16 07:02:13;;;;;;;7.55;4.85;;;17.90;58.90;;;;;;5052451;28;20207;-35
2022/08/16 07:04:44;;;;;;;8.48;4.68;;;17.90;58.80;;;;;;5052240;28;20901;-35
2022/08/16 07:07:14;;;;;;;6.38;4.40;;;17.90;58.80;;;;;;5048468;28;20208;-35
2022/08/16 07:09:46;;;;;;;6.85;4.50;;;17.90;58.80;;;;;;5052129;28;20202;-36
2022/08/16 07:12:18;;;;;;;7.05;4.00;;;17.90;58.70;;;;;;5068693;28;20195;-36
2022/08/16 07:14:50;;;;;;;6.90;3.85;;;17.90;58.80;;;;;;5072319;28;20275;-35
2022/08/16 07:17:21;;;;;;;4.43;3.60;;;17.90;58.90;;;;;;5071734;28;20210;-36
2022/08/16 07:19:52;;;;;;;6.43;4.05;;;17.90;59.10;;;;;;5071487;28;20314;-36
2022/08/16 07:22:24;;;;;;;4.72;3.63;;;17.90;59.10;;;;;;5072072;28;20195;-40
2022/08/16 07:24:55;;;;;;;7.22;3.78;;;17.90;59.20;;;;;;5071957;28;20222;-38
2022/08/16 07:27:25;;;;;;;5.70;3.75;;;17.90;59.20;;;;;;5053527;28;20216;-35
2022/08/16 07:29:58;;;;;;;7.43;3.80;;;17.90;59.20;;;;;;5052094;28;20196;-36
2022/08/16 07:32:29;;;;;;;6.15;3.97;;;17.90;59.20;;;;;;5052134;28;20655;-35
2022/08/16 07:35:00;;;;;;;5.78;4.03;;;17.90;59.20;;;;;;5051818;28;20234;-38
2022/08/16 07:37:31;;;;;;;5.68;3.97;;;17.90;59.10;;;;;;5051626;28;20574;-39
2022/08/16 07:40:01;;;;;;;6.57;3.70;;;17.90;59.00;;;;;;5051600;28;20223;-36
2022/08/16 07:42:32;;;;;;;7.10;3.95;;;17.90;59.00;;;;;;5051711;28;20582;-36
2022/08/16 07:45:05;;;;;;;7.90;4.00;;;17.90;59.00;;;;;;5051359;28;20206;-35
2022/08/16 07:47:35;;;;;;;7.25;3.65;;;17.90;59.00;;;;;;5051010;28;20223;-43
2022/08/16 07:50:07;;;;;;;4.95;3.60;;;17.90;59.10;;;;;;5051115;28;20207;-38
2022/08/16 07:52:38;;;;;;;6.05;3.72;;;17.90;59.70;;;;;;5051420;28;20191;-36
2022/08/16 07:55:09;;;;;;;6.05;3.45;;;17.90;59.20;;;;;;5051365;28;20573;-42
2022/08/16 07:57:40;;;;;;;5.88;3.58;;;17.90;59.20;;;;;;5053499;28;20677;-35
2022/08/16 08:00:15;;;;;;;6.72;3.95;;;17.90;59.20;;;;;;5051286;28;20242;-39
2022/08/16 08:02:46;;;;;;;5.30;3.42;;;17.90;59.70;;;;;;5051299;28;20202;-36
2022/08/16 08:05:17;;;;;;;4.85;3.33;;;17.90;59.10;;;;;;5051526;28;20573;-38
2022/08/16 08:07:48;;;;;;;5.65;3.47;;;17.90;59.00;;;;;;5051328;28;20245;-42
2022/08/16 08:10:18;;;;;;;5.47;3.47;;;17.90;59.00;;;;;;5051333;28;20195;-36
2022/08/16 08:12:51;;;;;;;6.93;3.55;;;17.90;59.00;;;;;;5069276;28;20564;-36
2022/08/16 08:15:24;;;;;;;5.20;3.30;;;17.90;59.00;;;;;;5071168;28;20205;-35
2022/08/16 08:17:55;;;;;;;4.95;3.83;;;17.90;59.00;;;;;;5070732;28;20222;-36
2022/08/16 08:20:26;;;;;;;4.38;3.00;;;17.90;59.00;;;;;;5070606;28;20223;-36
2022/08/16 08:22:59;;;;;;;4.88;3.55;;;17.90;59.00;;;;;;5070641;28;20209;-35
2022/08/16 08:25:31;;;;;;;5.38;3.47;;;17.90;59.00;;;;;;5070540;28;20207;-37
2022/08/16 08:28:02;;;;;;;5.15;2.95;;;17.90;59.00;;;;;;5051342;28;20223;-36
2022/08/16 08:30:35;;;;;;;3.90;3.28;;;17.90;59.00;;;;;;5050443;28;20204;-35
2022/08/16 08:33:06;;;;;;;4.07;3.35;;;17.80;58.90;;;;;;5050408;28;20192;-36
2022/08/16 08:35:37;;;;;;;4.90;3.20;;;17.80;58.90;;;;;;5050796;28;20206;-36
2022/08/16 08:38:09;;;;;;;4.30;3.17;;;17.80;58.90;;;;;;5050311;28;20222;-38
2022/08/16 08:40:39;;;;;;;3.97;3.05;;;17.80;58.90;;;;;;5049258;28;20736;-39
2022/08/16 08:43:12;;;;;;;4.20;3.20;;;17.80;58.90;;;;;;5070532;28;20214;-36
2022/08/16 08:45:44;;;;;;;5.18;3.45;;;17.80;58.90;;;;;;5070690;28;20222;-36
2022/08/16 08:48:15;;;;;;;3.88;3.25;;;17.80;58.90;;;;;;5070637;28;20654;-36
2022/08/16 08:50:46;;;;;;;4.65;3.28;;;17.80;58.90;;;;;;5070694;28;20201;-36
2022/08/16 08:53:17;;;;;;;5.22;3.08;;;17.80;58.90;;;;;;5070628;28;20207;-36
2022/08/16 08:55:50;;;;;;;4.47;2.95;;;17.80;58.90;;;;;;5069491;28;20264;-38
2022/08/16 08:58:21;;;;;;;4.05;2.80;;;17.80;58.90;;;;;;5032627;28;20196;-37
2022/08/16 09:00:53;;;;;;;4.25;2.92;;;17.80;58.90;;;;;;5030639;28;20224;-36
2022/08/16 09:03:24;;;;;;;5.60;3.17;;;17.80;58.90;;;;;;5030151;28;20192;-38
2022/08/16 09:05:55;;;;;;;3.67;3.00;;;17.80;58.90;;;;;;5029680;28;20200;-41
2022/08/16 09:08:25;;;;;;;4.13;2.85;;;17.80;58.90;;;;;;5030368;28;20204;-38
2022/08/16 09:10:56;;;;;;;3.58;2.97;;;17.80;58.90;;;;;;5029594;28;20294;-35
2022/08/16 09:13:28;;;;;;;4.65;3.13;;;17.80;58.90;;;;;;5050576;28;20207;-36
2022/08/16 09:16:00;;;;;;;3.70;2.95;;;17.80;58.90;;;;;;5050481;28;20196;-41
2022/08/16 09:18:31;;;;;;;4.07;3.20;;;17.80;58.90;;;;;;5050524;28;20561;-36
2022/08/16 09:21:02;;;;;;;3.60;2.85;;;17.80;58.80;;;;;;5050151;28;20694;-36
2022/08/16 09:23:34;;;;;;;3.65;3.08;;;17.80;58.90;;;;;;5049549;28;20199;-36
2022/08/16 09:26:06;;;;;;;3.45;3.05;;;17.80;58.90;;;;;;5049813;28;20200;-36
2022/08/16 09:28:37;;;;;;;3.90;3.05;;;17.70;58.90;;;;;;5070370;28;20199;-36
2022/08/16 09:31:09;;;;;;;4.07;2.88;;;17.70;59.10;;;;;;5070321;28;20203;-37
2022/08/16 09:33:41;;;;;;;4.10;2.67;;;17.80;59.20;;;;;;5070115;28;20614;-37
2022/08/16 09:36:13;;;;;;;3.53;2.60;;;17.70;59.20;;;;;;5069462;28;20219;-46
2022/08/16 09:38:44;;;;;;;3.90;2.67;;;17.70;59.20;;;;;;5070401;28;20206;-36
2022/08/16 09:41:15;;;;;;;3.70;2.88;;;17.70;59.20;;;;;;5070961;28;20234;-42
2022/08/16 09:43:45;;;;;;;4.05;2.65;;;17.70;59.10;;;;;;5073502;28;20195;-36
2022/08/16 09:46:18;;;;;;;3.05;2.47;;;17.70;59.10;;;;;;5073379;28;20225;-36
2022/08/16 09:48:51;;;;;;;3.05;2.65;;;17.70;59.10;;;;;;5073498;28;20690;-35
2022/08/16 09:51:25;;;;;;;3.05;2.35;;;17.80;59.10;;;;;;5057027;28;20276;-42
2022/08/16 09:53:56;;;;;;;4.22;2.90;;;17.70;59.10;;;;;;5046115;28;20204;-35
2022/08/16 09:56:30;;;;;;;3.33;2.50;;;17.70;59.10;;;;;;5052288;28;20211;-36
2022/08/16 09:59:02;;;;;;;3.67;2.70;;;17.70;59.10;;;;;;5051977;28;20233;-35
2022/08/16 10:01:35;;;;;;;3.40;2.47;;;17.70;59.10;;;;;;5047691;28;20225;-38
2022/08/16 10:04:07;;;;;;;3.47;2.38;;;17.70;59.10;;;;;;5038765;28;20223;-47
2022/08/16 10:06:38;;;;;;;3.47;2.38;;;17.70;59.10;;;;;;5032732;28;20220;-41
2022/08/16 10:09:10;;;;;;;3.50;2.40;;;17.70;59.10;;;;;;5037036;28;20647;-47
2022/08/16 10:14:30;;;;;;;3.25;2.40;;;17.70;59.10;;;;;;5052905;28;20268;-36
2022/08/16 10:17:05;;;;;;;3.97;2.95;;;17.70;59.00;;;;;;5052292;28;20216;-46
2022/08/16 10:19:35;;;;;;;3.08;2.33;;;17.70;59.00;;;;;;5052665;28;20191;-40
2022/08/16 10:22:06;;;;;;;2.63;2.05;;;17.70;59.00;;;;;;5052570;28;20230;-43
2022/08/16 10:24:37;;;;;;;3.20;2.50;;;17.70;59.00;;;;;;5052348;28;20686;-49
2022/08/16 10:27:08;;;;;;;3.97;2.78;;;17.70;59.00;;;;;;5050555;28;20220;-54
2022/08/16 10:29:39;;;;;;;4.63;2.40;;;17.70;59.10;;;;;;5052704;28;20563;-44
2022/08/16 10:32:11;;;;;;;5.35;3.40;;;17.70;59.00;;;;;;5052464;28;20616;-53
2022/08/16 10:34:42;;;;;;;4.13;2.63;;;17.70;59.10;;;;;;5052160;28;20206;-52
2022/08/16 10:37:13;;;;;;;3.25;2.65;;;17.60;59.00;;;;;;5051926;28;20216;-53
2022/08/16 10:39:44;;;;;;;6.90;2.58;;;17.60;59.00;;;;;;5051461;28;20184;-38
2022/08/16 10:42:16;;;;;;;4.80;2.42;;;17.70;59.10;;;;;;5051981;28;20215;-43
2022/08/16 10:44:46;;;;;;;5.50;2.90;;;17.60;59.00;;;;;;5052716;28;20203;-49
2022/08/16 10:47:19;;;;;;;5.65;2.75;;;17.70;59.00;;;;;;5034298;28;20224;-39
2022/08/16 10:49:50;;;;;;;4.70;2.70;;;17.70;59.00;;;;;;5031451;28;20207;-41
2022/08/16 10:52:21;;;;;;;4.68;3.30;;;17.60;58.90;;;;;;5031797;28;20804;-39
2022/08/16 10:54:52;;;;;;;3.70;2.95;;;17.60;58.90;;;;;;5031443;28;20722;-38
2022/08/16 10:57:23;;;;;;;4.30;2.80;;;17.60;58.90;;;;;;5044136;28;20227;-36
2022/08/16 10:59:54;;;;;;;4.03;2.83;;;17.60;59.00;;;;;;5051525;28;20659;-41
2022/08/16 11:02:26;;;;;;;6.55;3.15;;;17.60;59.00;;;;;;5049742;28;20223;-37
2022/08/16 11:04:58;;;;;;;5.35;2.60;;;17.60;58.90;;;;;;5050109;28;20609;-38
2022/08/16 11:07:29;;;;;;;5.40;2.95;;;17.60;59.00;;;;;;5051920;28;20211;-42
2022/08/16 11:10:01;;;;;;;4.00;3.00;;;17.60;59.00;;;;;;5051767;28;20203;-53
2022/08/16 11:12:31;;;;;;;4.88;2.88;;;17.60;59.00;;;;;;5051522;28;20202;-39
2022/08/16 11:15:02;;;;;;;4.85;2.63;;;17.60;59.00;;;;;;5051266;28;20203;-35
2022/08/16 11:17:35;;;;;;;7.80;3.28;;;17.60;59.00;;;;;;5050780;28;20223;-38
2022/08/16 11:20:06;;;;;;;4.90;2.75;;;17.60;59.00;;;;;;5051492;28;20196;-36
2022/08/16 11:22:38;;;;;;;7.28;3.05;;;17.60;59.00;;;;;;5050886;28;20219;-36
2022/08/16 11:25:09;;;;;;;4.95;2.80;;;17.60;59.00;;;;;;5050597;28;20541;-36
2022/08/16 11:27:40;;;;;;;6.30;3.20;;;17.50;58.90;;;;;;5050172;28;20230;-35
2022/08/16 11:30:13;;;;;;;5.28;3.03;;;17.50;58.90;;;;;;5051734;28;20202;-39
2022/08/16 11:32:46;;;;;;;7.63;3.15;;;17.50;58.90;;;;;;5051339;28;20257;-36
2022/08/16 11:35:19;;;;;;;4.82;2.67;;;17.50;58.90;;;;;;5051286;28;20202;-36
2022/08/16 11:37:52;;;;;;;5.00;2.42;;;17.50;58.90;;;;;;5051042;28;20247;-36
2022/08/16 11:40:23;;;;;;;4.55;2.50;;;17.50;59.00;;;;;;5050918;28;20195;-36
2022/08/16 11:42:54;;;;;;;6.25;3.05;;;17.50;59.00;;;;;;5051032;28;20223;-35
2022/08/16 11:45:24;;;;;;;4.57;2.92;;;17.50;58.90;;;;;;5049074;28;20192;-36
2022/08/16 11:47:59;;;;;;;4.93;2.80;;;17.50;58.90;;;;;;5039206;28;20228;-37
2022/08/16 11:50:32;;;;;;;5.60;3.17;;;17.50;58.90;;;;;;5050900;28;20857;-36
2022/08/16 11:53:03;;;;;;;4.88;3.05;;;17.50;58.90;;;;;;5051019;28;20278;-47
2022/08/16 11:55:35;;;;;;;4.43;2.70;;;17.50;58.90;;;;;;5050479;28;20226;-45
2022/08/16 11:58:06;;;;;;;3.78;2.50;;;17.50;58.90;;;;;;5050722;28;20218;-42
2022/08/16 12:00:38;;;;;;;3.90;2.35;;;17.50;58.90;;;;;;5050510;28;20196;-37
2022/08/16 12:03:11;;;;;;;4.30;2.60;;;17.50;58.90;;;;;;5050424;28;20195;-36
2022/08/16 12:05:45;;;;;;;4.15;2.75;;;17.50;59.00;;;;;;5050347;28;20208;-37
2022/08/16 12:08:16;;;;;;;5.43;3.00;;;17.50;58.90;;;;;;5051305;28;20572;-36
2022/08/16 12:10:47;;;;;;;4.88;3.05;;;17.40;58.90;;;;;;5050187;28;20291;-38
2022/08/16 12:13:18;;;;;;;4.13;2.70;;;17.40;58.90;;;;;;5049323;28;20195;-35
2022/08/16 12:15:48;;;;;;;4.03;2.85;;;17.50;58.90;;;;;;5049635;28;20577;-36
2022/08/16 12:18:21;;;;;;;4.53;2.90;;;17.50;59.00;;;;;;5049847;28;20728;-38
2022/08/16 12:20:52;;;;;;;6.22;2.75;;;17.40;58.90;;;;;;5059390;28;20187;-36
2022/08/16 12:23:22;;;;;;;5.40;2.28;;;17.40;59.00;;;;;;5069301;28;20377;-35
2022/08/16 12:25:53;;;;;;;4.07;2.83;;;17.40;58.90;;;;;;5068183;28;20199;-35
2022/08/16 12:28:24;;;;;;;3.92;2.78;;;17.50;58.90;;;;;;5049357;28;20214;-36
2022/08/16 12:30:55;;;;;;;6.22;2.90;;;17.50;58.90;;;;;;5049517;28;20195;-37
2022/08/16 12:33:27;;;;;;;6.30;3.08;;;17.40;58.90;;;;;;5049488;28;20199;-35
2022/08/16 12:35:58;;;;;;;5.20;2.85;;;17.40;58.90;;;;;;5058958;28;20206;-39
2022/08/16 12:38:29;;;;;;;5.45;3.10;;;17.40;58.90;;;;;;5069228;28;20226;-35
2022/08/16 12:41:00;;;;;;;6.72;3.33;;;17.40;59.00;;;;;;5069134;28;20201;-35
2022/08/16 12:43:30;;;;;;;4.10;2.90;;;17.40;59.50;;;;;;5067798;28;20197;-36
2022/08/16 12:46:01;;;;;;;4.07;3.08;;;17.40;59.00;;;;;;5047183;28;20191;-36
2022/08/16 12:51:25;;;;;;;6.05;3.08;;;17.40;58.90;;;;;;5049148;28;20203;-36
2022/08/16 12:53:58;;;;;;;5.30;3.17;;;17.40;59.00;;;;;;5049247;28;20198;-38
2022/08/16 12:56:35;;;;;;;3.72;2.70;;;17.40;59.00;;;;;;5048512;28;20223;-36
2022/08/16 12:59:10;;;;;;;6.75;2.92;;;17.40;59.00;;;;;;5048724;28;20198;-37
2022/08/16 13:01:44;;;;;;;4.45;2.55;;;17.30;59.00;;;;;;5031121;28;20730;-36
2022/08/16 13:04:17;;;;;;;5.20;2.95;;;17.30;58.90;;;;;;5028881;28;20287;-36
2022/08/16 13:06:49;;;;;;;6.20;3.05;;;17.30;58.90;;;;;;5043978;28;20765;-35
2022/08/16 13:09:23;;;;;;;4.70;2.95;;;17.30;58.90;;;;;;5048780;28;20308;-35
2022/08/16 13:12:06;;;;;;;3.85;2.60;;;17.30;58.90;;;;;;5048570;28;20203;-37
2022/08/16 13:14:39;;;;;;;4.13;2.80;;;17.30;59.00;;;;;;5049495;28;20210;-35